Denver, Colorado
Traffic Map
Current Weather Conditions
Denver, Colorado
Scattered Clouds
Scattered Clouds
13°
Feels Like: 13°
Wind Chill: 13° Ceiling: Unl
Heat Index: 13° Visibility: 10mi
Dew Point: 11° Wind: 6mph
Humidity: 91% Direction: 170° (S)
Pressure: 30.19in Gusts: 0mph
Raw Report DataKBKF 280458Z 17005KT 10SM FEW150 SCT220 13/11 A3019 RMK AO2A SLP168 T01270113
Traffic Incident Summary
Active as of:
Severity:
Category:
InformationThere was an issue retrieving the traffic information for this location. Please try a different location or try again shortly.
Advertisements
Track Severe Weather on mobile